Time,TemperatureF,DewpointF,PressureIn,WindDirection,WindDirectionDegrees,WindSpeedMPH,WindSpeedGustMPH,Humidity,HourlyPrecipIn,Conditions,Clouds,dailyrainin,SoftwareType,DateUTC
2013-04-08 00:00:00,45.4,43.2,30.08,SSE,157,0.0,5.0,92,0.00,,,0.00,WeatherCatV1.02B3,2013-04-08 04:00:00,
2013-04-08 00:01:00,45.4,43.2,30.08,SSE,157,2.0,4.0,92,0.00,,,0.00,WeatherCatV1.02B3,2013-04-08 04:01:00,
2013-04-08 00:06:00,45.4,43.2,30.08,SSE,157,2.0,8.0,92,0.00,,,0.00,WeatherCatV1.02B3,2013-04-08 04:06:00,
2013-04-08 00:11:00,45.3,43.1,30.07,SSE,156,0.0,5.0,92,0.00,,,0.00,WeatherCatV1.02B3,2013-04-08 04:11:00,
2013-04-08 00:16:00,45.3,43.1,30.07,SSE,156,0.0,5.0,92,0.00,,,0.00,WeatherCatV1.02B3,2013-04-08 04:16:00,
2013-04-08 00:21:00,45.3,43.1,30.07,SSE,156,2.0,7.0,92,0.00,,,0.00,WeatherCatV1.02B3,2013-04-08 04:21:00,
2013-04-08 00:26:00,45.3,43.1,30.07,SSE,157,3.0,6.0,92,0.00,,,0.00,WeatherCatV1.02B3,2013-04-08 04:26:00,
2013-04-08 00:31:00,45.3,43.1,30.07,SSE,156,2.0,3.0,92,0.00,,,0.00,WeatherCatV1.02B3,2013-04-08 04:31:00,
2013-04-08 00:36:00,45.3,43.1,30.07,SSE,156,3.0,4.0,92,0.00,,,0.00,WeatherCatV1.02B3,2013-04-08 04:36:00,
2013-04-08 00:41:00,45.3,43.1,30.07,SSE,156,0.0,2.0,92,0.00,,,0.00,WeatherCatV1.02B3,2013-04-08 04:41:00,
2013-04-08 00:46:00,45.2,43.0,30.07,SSE,157,4.0,4.0,92,0.00,,,0.00,WeatherCatV1.02B3,2013-04-08 04:46:00,
2013-04-08 00:51:00,45.1,43.2,30.07,SSE,157,1.0,4.0,93,0.00,,,0.00,WeatherCatV1.02B3,2013-04-08 04:51:00,
2013-04-08 00:56:00,45.0,43.1,30.06,SSE,157,3.0,4.0,93,0.00,,,0.00,WeatherCatV1.02B3,2013-04-08 04:56:00,
2013-04-08 01:01:00,45.0,43.1,30.06,SSE,157,0.0,2.0,93,0.00,,,0.00,WeatherCatV1.02B3,2013-04-08 05:01:00,
2013-04-08 01:06:00,44.9,43.0,30.06,SSE,156,0.0,0.0,93,0.00,,,0.00,WeatherCatV1.02B3,2013-04-08 05:06:00,
2013-04-08 01:11:00,44.7,42.8,30.06,SSE,157,0.0,2.0,93,0.00,,,0.00,WeatherCatV1.02B3,2013-04-08 05:11:00,
2013-04-08 01:16:00,44.7,43.1,30.06,SSE,156,0.0,0.0,94,0.00,,,0.00,WeatherCatV1.02B3,2013-04-08 05:16:00,
2013-04-08 01:21:00,44.6,42.7,30.06,SSE,156,0.0,0.0,93,0.00,,,0.00,WeatherCatV1.02B3,2013-04-08 05:21:00,
2013-04-08 01:26:00,44.4,42.5,30.06,SSE,157,0.0,0.0,93,0.00,,,0.00,WeatherCatV1.02B3,2013-04-08 05:26:00,
2013-04-08 01:31:00,44.2,42.6,30.06,SSE,157,0.0,1.0,94,0.00,,,0.00,WeatherCatV1.02B3,2013-04-08 05:31:00,
2013-04-08 01:36:00,44.1,42.5,30.05,SSE,156,0.0,0.0,94,0.00,,,0.00,WeatherCatV1.02B3,2013-04-08 05:36:00,
2013-04-08 01:41:00,43.9,42.3,30.05,SSE,157,0.0,0.0,94,0.00,,,0.00,WeatherCatV1.02B3,2013-04-08 05:41:00,
2013-04-08 01:46:00,43.6,42.0,30.05,SSE,157,0.0,0.0,94,0.00,,,0.00,WeatherCatV1.02B3,2013-04-08 05:46:00,
2013-04-08 01:51:00,43.2,41.6,30.05,SSE,157,0.0,0.0,94,0.00,,,0.00,WeatherCatV1.02B3,2013-04-08 05:51:00,
2013-04-08 01:56:00,42.8,41.2,30.05,SSE,156,0.0,0.0,94,0.00,,,0.00,WeatherCatV1.02B3,2013-04-08 05:56:00,
2013-04-08 02:01:00,42.7,41.4,30.05,SSE,157,0.0,0.0,95,0.00,,,0.00,WeatherCatV1.02B3,2013-04-08 06:01:00,
2013-04-08 02:06:00,42.7,41.6,30.04,SSE,156,0.0,0.0,96,0.00,,,0.00,WeatherCatV1.02B3,2013-04-08 06:06:00,
2013-04-08 02:11:00,42.7,41.6,30.04,SSE,156,0.0,0.0,96,0.00,,,0.00,WeatherCatV1.02B3,2013-04-08 06:11:00,
2013-04-08 02:16:00,42.7,41.6,30.04,SSE,156,0.0,0.0,96,0.00,,,0.00,WeatherCatV1.02B3,2013-04-08 06:16:00,
2013-04-08 02:21:00,42.7,41.6,30.04,SSE,156,0.0,0.0,96,0.00,,,0.00,WeatherCatV1.02B3,2013-04-08 06:21:00,
2013-04-08 02:26:00,42.6,41.5,30.04,SSE,157,0.0,0.0,96,0.00,,,0.00,WeatherCatV1.02B3,2013-04-08 06:26:00,
2013-04-08 02:31:00,42.4,41.3,30.03,SSE,157,0.0,0.0,96,0.00,,,0.00,WeatherCatV1.02B3,2013-04-08 06:31:00,
2013-04-08 02:36:00,42.0,40.9,30.04,SSE,157,0.0,0.0,96,0.00,,,0.00,WeatherCatV1.02B3,2013-04-08 06:36:00,
2013-04-08 02:41:00,41.7,40.6,30.04,SSE,157,0.0,0.0,96,0.00,,,0.00,WeatherCatV1.02B3,2013-04-08 06:41:00,
2013-04-08 02:46:00,41.5,40.4,30.04,SSE,156,0.0,0.0,96,0.00,,,0.00,WeatherCatV1.02B3,2013-04-08 06:46:00,
2013-04-08 02:51:00,41.5,40.4,30.03,SSE,157,0.0,0.0,96,0.00,,,0.00,WeatherCatV1.02B3,2013-04-08 06:51:00,
2013-04-08 02:56:00,41.3,40.2,30.03,SSE,157,0.0,0.0,96,0.00,,,0.00,WeatherCatV1.02B3,2013-04-08 06:56:00,
2013-04-08 03:01:00,41.6,40.8,30.03,SSE,157,0.0,0.0,97,0.00,,,0.00,WeatherCatV1.02B3,2013-04-08 07:01:00,
2013-04-08 03:06:00,41.7,40.9,30.03,SSE,157,0.0,0.0,97,0.00,,,0.00,WeatherCatV1.02B3,2013-04-08 07:06:00,
2013-04-08 03:11:00,41.9,41.1,30.03,SSE,156,0.0,0.0,97,0.00,,,0.00,WeatherCatV1.02B3,2013-04-08 07:11:00,
2013-04-08 03:16:00,42.0,41.2,30.03,SSE,156,0.0,0.0,97,0.00,,,0.00,WeatherCatV1.02B3,2013-04-08 07:16:00,
2013-04-08 03:21:00,42.1,41.3,30.03,SSE,157,0.0,0.0,97,0.00,,,0.00,WeatherCatV1.02B3,2013-04-08 07:21:00,
2013-04-08 03:26:00,42.2,41.4,30.03,SSE,157,0.0,0.0,97,0.00,,,0.00,WeatherCatV1.02B3,2013-04-08 07:26:00,
2013-04-08 03:31:00,42.3,41.5,30.03,SSE,157,0.0,0.0,97,0.00,,,0.00,WeatherCatV1.02B3,2013-04-08 07:31:00,
2013-04-08 03:36:00,42.5,41.7,30.03,SSE,156,0.0,0.0,97,0.00,,,0.00,WeatherCatV1.02B3,2013-04-08 07:36:00,
2013-04-08 03:41:00,42.5,41.7,30.03,SSE,156,0.0,0.0,97,0.00,,,0.00,WeatherCatV1.02B3,2013-04-08 07:41:00,
2013-04-08 03:46:00,42.3,41.5,30.02,SSE,156,0.0,0.0,97,0.00,,,0.00,WeatherCatV1.02B3,2013-04-08 07:46:00,
2013-04-08 03:51:00,41.8,40.7,30.02,SSE,156,0.0,0.0,96,0.00,,,0.00,WeatherCatV1.02B3,2013-04-08 07:51:00,
2013-04-08 03:56:00,41.5,40.4,30.02,SSE,156,0.0,0.0,96,0.00,,,0.00,WeatherCatV1.02B3,2013-04-08 07:56:00,
2013-04-08 04:01:00,41.5,40.7,30.02,SSE,157,0.0,0.0,97,0.00,,,0.00,WeatherCatV1.02B3,2013-04-08 08:01:00,
2013-04-08 04:06:00,41.5,40.7,30.02,SSE,156,1.0,1.0,97,0.00,,,0.00,WeatherCatV1.02B3,2013-04-08 08:06:00,
2013-04-08 04:11:00,41.6,40.8,30.02,SSE,156,0.0,0.0,97,0.00,,,0.00,WeatherCatV1.02B3,2013-04-08 08:11:00,
2013-04-08 04:16:00,41.8,41.0,30.02,SSE,156,0.0,0.0,97,0.00,,,0.00,WeatherCatV1.02B3,2013-04-08 08:16:00,
2013-04-08 04:21:00,41.9,41.1,30.02,SSE,156,0.0,0.0,97,0.00,,,0.00,WeatherCatV1.02B3,2013-04-08 08:21:00,
2013-04-08 04:26:00,42.2,41.7,30.02,SSE,156,0.0,0.0,98,0.00,,,0.00,WeatherCatV1.02B3,2013-04-08 08:26:00,
2013-04-08 04:31:00,42.5,42.0,30.02,SSE,156,0.0,0.0,98,0.00,,,0.00,WeatherCatV1.02B3,2013-04-08 08:31:00,
2013-04-08 04:36:00,42.4,41.6,30.02,SSE,157,0.0,0.0,97,0.00,,,0.00,WeatherCatV1.02B3,2013-04-08 08:36:00,
2013-04-08 04:41:00,42.2,41.4,30.02,SSE,157,0.0,0.0,97,0.00,,,0.00,WeatherCatV1.02B3,2013-04-08 08:41:00,
2013-04-08 04:46:00,42.2,41.4,30.02,SSE,156,0.0,0.0,97,0.00,,,0.00,WeatherCatV1.02B3,2013-04-08 08:46:00,
2013-04-08 04:51:00,42.0,41.2,30.02,SSE,157,0.0,0.0,97,0.00,,,0.00,WeatherCatV1.02B3,2013-04-08 08:51:00,
2013-04-08 04:56:00,42.2,41.4,30.02,SSE,156,0.0,0.0,97,0.00,,,0.00,WeatherCatV1.02B3,2013-04-08 08:56:00,
2013-04-08 05:01:00,42.2,41.4,30.02,SSE,157,0.0,0.0,97,0.00,,,0.00,WeatherCatV1.02B3,2013-04-08 09:01:00,
2013-04-08 05:07:00,42.4,41.6,30.02,SSE,156,0.0,1.0,97,0.00,,,0.00,WeatherCatV1.02B3,2013-04-08 09:07:00,
2013-04-08 05:12:00,42.6,42.1,30.02,SSE,156,0.0,0.0,98,0.00,,,0.00,WeatherCatV1.02B3,2013-04-08 09:12:00,
2013-04-08 05:17:00,42.8,42.3,30.02,SSE,156,0.0,0.0,98,0.00,,,0.00,WeatherCatV1.02B3,2013-04-08 09:17:00,
2013-04-08 05:22:00,43.0,42.5,30.02,SSE,156,0.0,0.0,98,0.00,,,0.00,WeatherCatV1.02B3,2013-04-08 09:22:00,
2013-04-08 05:27:00,43.0,42.2,30.02,SSE,157,0.0,0.0,97,0.00,,,0.00,WeatherCatV1.02B3,2013-04-08 09:27:00,
2013-04-08 05:32:00,43.0,42.2,30.02,SSE,156,0.0,0.0,97,0.00,,,0.00,WeatherCatV1.02B3,2013-04-08 09:32:00,
2013-04-08 05:37:00,43.0,42.2,30.03,SSE,157,0.0,0.0,97,0.00,,,0.00,WeatherCatV1.02B3,2013-04-08 09:37:00,
2013-04-08 05:42:00,42.8,42.0,30.03,SSE,156,0.0,0.0,97,0.00,,,0.00,WeatherCatV1.02B3,2013-04-08 09:42:00,
2013-04-08 05:47:00,42.2,41.1,30.03,SSE,157,0.0,1.0,96,0.00,,,0.00,WeatherCatV1.02B3,2013-04-08 09:47:00,
2013-04-08 05:52:00,41.9,41.1,30.03,SSE,156,0.0,0.0,97,0.00,,,0.00,WeatherCatV1.02B3,2013-04-08 09:52:00,
2013-04-08 05:57:00,41.8,41.0,30.03,SSE,156,0.0,0.0,97,0.00,,,0.00,WeatherCatV1.02B3,2013-04-08 09:57:00,
2013-04-08 06:02:00,41.6,40.8,30.03,SSE,157,0.0,0.0,97,0.00,,,0.00,WeatherCatV1.02B3,2013-04-08 10:02:00,
2013-04-08 06:07:00,41.5,40.7,30.03,SSE,156,0.0,0.0,97,0.00,,,0.00,WeatherCatV1.02B3,2013-04-08 10:07:00,
2013-04-08 06:12:00,41.3,40.5,30.04,SSE,156,0.0,0.0,97,0.00,,,0.00,WeatherCatV1.02B3,2013-04-08 10:12:00,
2013-04-08 06:17:00,41.3,40.5,30.04,SSE,156,0.0,0.0,97,0.00,,,0.00,WeatherCatV1.02B3,2013-04-08 10:17:00,
2013-04-08 06:22:00,41.3,40.5,30.05,SSE,156,0.0,0.0,97,0.00,,,0.00,WeatherCatV1.02B3,2013-04-08 10:22:00,
2013-04-08 06:27:00,41.0,40.2,30.05,SSE,156,0.0,0.0,97,0.00,,,0.00,WeatherCatV1.02B3,2013-04-08 10:27:00,
2013-04-08 06:32:00,41.0,40.2,30.05,SSE,156,0.0,0.0,97,0.00,,,0.00,WeatherCatV1.02B3,2013-04-08 10:32:00,
2013-04-08 06:37:00,40.8,40.0,30.05,SSE,157,1.0,1.0,97,0.00,,,0.00,WeatherCatV1.02B3,2013-04-08 10:37:00,
2013-04-08 06:42:00,40.5,39.7,30.05,SSE,156,0.0,2.0,97,0.00,,,0.00,WeatherCatV1.02B3,2013-04-08 10:42:00,
2013-04-08 06:47:00,40.4,39.6,30.06,SSE,156,0.0,0.0,97,0.00,,,0.00,WeatherCatV1.02B3,2013-04-08 10:47:00,
2013-04-08 06:52:00,40.9,40.4,30.07,SSE,156,0.0,0.0,98,0.00,,,0.00,WeatherCatV1.02B3,2013-04-08 10:52:00,
2013-04-08 06:57:00,41.7,41.2,30.07,SSE,156,0.0,0.0,98,0.00,,,0.00,WeatherCatV1.02B3,2013-04-08 10:57:00,
2013-04-08 07:02:00,42.0,41.5,30.07,SSE,156,0.0,0.0,98,0.00,,,0.00,WeatherCatV1.02B3,2013-04-08 11:02:00,
2013-04-08 07:07:00,42.2,41.7,30.06,SSE,156,0.0,0.0,98,0.00,,,0.00,WeatherCatV1.02B3,2013-04-08 11:07:00,
2013-04-08 07:12:00,42.6,42.1,30.07,SSE,157,0.0,0.0,98,0.00,,,0.00,WeatherCatV1.02B3,2013-04-08 11:12:00,
2013-04-08 07:17:00,43.0,42.5,30.07,SSE,156,0.0,0.0,98,0.00,,,0.00,WeatherCatV1.02B3,2013-04-08 11:17:00,
2013-04-08 07:22:00,42.3,41.5,30.07,SSE,156,0.0,0.0,97,0.00,,,0.00,WeatherCatV1.02B3,2013-04-08 11:22:00,
2013-04-08 07:27:00,42.1,41.3,30.07,SSE,157,0.0,0.0,97,0.00,,,0.00,WeatherCatV1.02B3,2013-04-08 11:27:00,
2013-04-08 07:32:00,42.1,41.3,30.08,SSE,156,0.0,0.0,97,0.00,,,0.00,WeatherCatV1.02B3,2013-04-08 11:32:00,
2013-04-08 07:37:00,42.8,42.3,30.08,SSE,156,0.0,0.0,98,0.00,,,0.00,WeatherCatV1.02B3,2013-04-08 11:37:00,
2013-04-08 07:42:00,43.6,43.1,30.08,SSE,156,0.0,0.0,98,0.00,,,0.00,WeatherCatV1.02B3,2013-04-08 11:42:00,
2013-04-08 07:47:00,44.7,44.2,30.08,SSE,156,0.0,0.0,98,0.00,,,0.00,WeatherCatV1.02B3,2013-04-08 11:47:00,
2013-04-08 07:52:00,45.6,45.1,30.08,SSE,157,0.0,0.0,98,0.00,,,0.00,WeatherCatV1.02B3,2013-04-08 11:52:00,
2013-04-08 07:57:00,46.8,46.0,30.08,SSE,156,0.0,0.0,97,0.00,,,0.00,WeatherCatV1.02B3,2013-04-08 11:57:00,
2013-04-08 08:02:00,47.8,46.4,30.08,SSE,156,0.0,0.0,95,0.00,,,0.00,WeatherCatV1.02B3,2013-04-08 12:02:00,
2013-04-08 08:07:00,48.9,46.7,30.08,SSE,156,0.0,0.0,92,0.00,,,0.00,WeatherCatV1.02B3,2013-04-08 12:07:00,
2013-04-08 08:12:00,50.2,47.1,30.08,SSE,156,1.0,1.0,89,0.00,,,0.00,WeatherCatV1.02B3,2013-04-08 12:12:00,
2013-04-08 08:17:00,51.0,47.0,30.08,SSE,157,0.0,0.0,86,0.00,,,0.00,WeatherCatV1.02B3,2013-04-08 12:17:00,
2013-04-08 08:22:00,52.2,47.2,30.07,SSE,156,0.0,1.0,83,0.00,,,0.00,WeatherCatV1.02B3,2013-04-08 12:22:00,
2013-04-08 08:27:00,52.6,46.6,30.07,SSE,156,1.0,2.0,80,0.00,,,0.00,WeatherCatV1.02B3,2013-04-08 12:27:00,
2013-04-08 08:32:00,52.9,45.5,30.08,SSE,157,0.0,0.0,76,0.00,,,0.00,WeatherCatV1.02B3,2013-04-08 12:32:00,
2013-04-08 08:37:00,53.2,45.1,30.08,SSE,157,0.0,3.0,74,0.00,,,0.00,WeatherCatV1.02B3,2013-04-08 12:37:00,
2013-04-08 08:42:00,53.5,45.1,30.08,SSE,156,0.0,2.0,73,0.00,,,0.00,WeatherCatV1.02B3,2013-04-08 12:42:00,
2013-04-08 08:47:00,54.0,44.8,30.08,SSE,157,0.0,4.0,71,0.00,,,0.00,WeatherCatV1.02B3,2013-04-08 12:47:00,
2013-04-08 08:52:00,54.3,44.7,30.08,SSE,156,0.0,2.0,70,0.00,,,0.00,WeatherCatV1.02B3,2013-04-08 12:52:00,
2013-04-08 08:57:00,54.5,44.5,30.08,SSE,156,1.0,3.0,69,0.00,,,0.00,WeatherCatV1.02B3,2013-04-08 12:57:00,
2013-04-08 09:02:00,54.5,44.5,30.08,SSE,156,0.0,2.0,69,0.00,,,0.00,WeatherCatV1.02B3,2013-04-08 13:02:00,
2013-04-08 09:07:00,55.1,44.7,30.08,SSE,156,0.0,5.0,68,0.00,,,0.00,WeatherCatV1.02B3,2013-04-08 13:07:00,
2013-04-08 09:12:00,55.4,43.8,30.08,SSE,156,2.0,4.0,65,0.00,,,0.00,WeatherCatV1.02B3,2013-04-08 13:12:00,
2013-04-08 09:17:00,55.3,42.9,30.08,SSE,156,1.0,3.0,63,0.00,,,0.00,WeatherCatV1.02B3,2013-04-08 13:17:00,
2013-04-08 09:22:00,55.2,42.8,30.08,SSE,156,1.0,4.0,63,0.00,,,0.00,WeatherCatV1.02B3,2013-04-08 13:22:00,
2013-04-08 09:27:00,55.9,43.9,30.09,SSE,156,2.0,4.0,64,0.00,,,0.00,WeatherCatV1.02B3,2013-04-08 13:27:00,
2013-04-08 09:32:00,56.0,43.2,30.09,SSE,156,2.0,3.0,62,0.00,,,0.00,WeatherCatV1.02B3,2013-04-08 13:32:00,
2013-04-08 09:37:00,56.4,43.1,30.09,SSE,156,1.0,2.0,61,0.00,,,0.00,WeatherCatV1.02B3,2013-04-08 13:37:00,
2013-04-08 09:42:00,57.0,44.5,30.09,SSE,156,3.0,3.0,63,0.00,,,0.00,WeatherCatV1.02B3,2013-04-08 13:42:00,
2013-04-08 09:47:00,57.6,42.5,30.09,SSE,156,2.0,6.0,57,0.00,,,0.00,WeatherCatV1.02B3,2013-04-08 13:47:00,
2013-04-08 09:52:00,57.1,42.9,30.09,SSE,157,0.0,2.0,59,0.00,,,0.00,WeatherCatV1.02B3,2013-04-08 13:52:00,
2013-04-08 09:57:00,57.4,42.3,30.09,SSE,157,1.0,3.0,57,0.00,,,0.00,WeatherCatV1.02B3,2013-04-08 13:57:00,
2013-04-08 10:02:00,58.1,42.9,30.09,SSE,157,2.0,3.0,57,0.00,,,0.00,WeatherCatV1.02B3,2013-04-08 14:02:00,
2013-04-08 10:07:00,58.3,42.2,30.09,SSE,157,2.0,7.0,55,0.00,,,0.00,WeatherCatV1.02B3,2013-04-08 14:07:00,
2013-04-08 10:12:00,58.6,42.5,30.09,SSE,157,1.0,3.0,55,0.00,,,0.00,WeatherCatV1.02B3,2013-04-08 14:12:00,
2013-04-08 10:17:00,59.0,43.3,30.09,SSE,156,3.0,5.0,56,0.00,,,0.00,WeatherCatV1.02B3,2013-04-08 14:17:00,
2013-04-08 10:22:00,58.6,43.4,30.10,SSE,156,1.0,4.0,57,0.00,,,0.00,WeatherCatV1.02B3,2013-04-08 14:22:00,
2013-04-08 10:27:00,58.6,43.0,30.10,SSE,157,0.0,4.0,56,0.00,,,0.00,WeatherCatV1.02B3,2013-04-08 14:27:00,
2013-04-08 10:32:00,58.8,43.1,30.10,SSE,156,0.0,4.0,56,0.00,,,0.00,WeatherCatV1.02B3,2013-04-08 14:32:00,
2013-04-08 10:37:00,59.1,42.0,30.10,SSE,156,1.0,8.0,53,0.00,,,0.00,WeatherCatV1.02B3,2013-04-08 14:37:00,
2013-04-08 10:42:00,59.6,43.4,30.09,SSE,156,4.0,5.0,55,0.00,,,0.00,WeatherCatV1.02B3,2013-04-08 14:42:00,
2013-04-08 10:47:00,60.5,44.7,30.09,SSE,156,2.0,3.0,56,0.00,,,0.00,WeatherCatV1.02B3,2013-04-08 14:47:00,
2013-04-08 10:52:00,60.8,43.1,30.08,SSE,156,2.0,5.0,52,0.00,,,0.00,WeatherCatV1.02B3,2013-04-08 14:52:00,
2013-04-08 10:57:00,61.2,42.9,30.09,SSE,156,0.0,3.0,51,0.00,,,0.00,WeatherCatV1.02B3,2013-04-08 14:57:00,
2013-04-08 11:02:00,61.5,43.7,30.09,SSE,156,1.0,2.0,52,0.00,,,0.00,WeatherCatV1.02B3,2013-04-08 15:02:00,
2013-04-08 11:07:00,62.0,43.1,30.09,SSE,156,2.0,5.0,50,0.00,,,0.00,WeatherCatV1.02B3,2013-04-08 15:07:00,
2013-04-08 11:12:00,62.0,42.6,30.09,SSE,156,5.0,6.0,49,0.00,,,0.00,WeatherCatV1.02B3,2013-04-08 15:12:00,
2013-04-08 11:17:00,61.8,44.5,30.09,SSE,156,1.0,3.0,53,0.00,,,0.00,WeatherCatV1.02B3,2013-04-08 15:17:00,
2013-04-08 11:22:00,62.3,42.9,30.09,SSE,156,0.0,2.0,49,0.00,,,0.00,WeatherCatV1.02B3,2013-04-08 15:22:00,
2013-04-08 11:27:00,62.9,44.0,30.09,SSE,156,3.0,3.0,50,0.00,,,0.00,WeatherCatV1.02B3,2013-04-08 15:27:00,
2013-04-08 11:32:00,63.0,42.4,30.09,SSE,156,4.0,6.0,47,0.00,,,0.00,WeatherCatV1.02B3,2013-04-08 15:32:00,
2013-04-08 11:37:00,63.4,43.9,30.09,SSE,156,3.0,4.0,49,0.00,,,0.00,WeatherCatV1.02B3,2013-04-08 15:37:00,
2013-04-08 11:42:00,64.0,43.9,30.09,SSE,156,0.0,2.0,48,0.00,,,0.00,WeatherCatV1.02B3,2013-04-08 15:42:00,
2013-04-08 11:47:00,64.4,43.2,30.09,SSE,156,0.0,4.0,46,0.00,,,0.00,WeatherCatV1.02B3,2013-04-08 15:47:00,
2013-04-08 11:52:00,64.2,42.4,30.09,SSE,156,1.0,6.0,45,0.00,,,0.00,WeatherCatV1.02B3,2013-04-08 15:52:00,
2013-04-08 11:57:00,64.1,44.0,30.09,SSE,156,0.0,2.0,48,0.00,,,0.00,WeatherCatV1.02B3,2013-04-08 15:57:00,
2013-04-08 12:02:00,63.9,41.6,30.09,SSE,156,0.0,2.0,44,0.00,,,0.00,WeatherCatV1.02B3,2013-04-08 16:02:00,
2013-04-08 12:07:00,64.0,43.4,30.09,SSE,157,4.0,4.0,47,0.00,,,0.00,WeatherCatV1.02B3,2013-04-08 16:07:00,
2013-04-08 12:12:00,64.7,45.1,30.09,SSE,156,0.0,2.0,49,0.00,,,0.00,WeatherCatV1.02B3,2013-04-08 16:12:00,
2013-04-08 12:17:00,65.6,44.8,30.08,SSE,156,0.0,4.0,47,0.00,,,0.00,WeatherCatV1.02B3,2013-04-08 16:17:00,
2013-04-08 12:22:00,66.0,42.9,30.08,SSE,156,2.0,2.0,43,0.00,,,0.00,WeatherCatV1.02B3,2013-04-08 16:22:00,
2013-04-08 12:27:00,66.6,45.2,30.08,SSE,156,3.0,4.0,46,0.00,,,0.00,WeatherCatV1.02B3,2013-04-08 16:27:00,
2013-04-08 12:32:00,67.1,45.0,30.08,SSE,156,3.0,3.0,45,0.00,,,0.00,WeatherCatV1.02B3,2013-04-08 16:32:00,
2013-04-08 12:37:00,66.6,45.2,30.08,SSE,156,2.0,5.0,46,0.00,,,0.00,WeatherCatV1.02B3,2013-04-08 16:37:00,
2013-04-08 12:42:00,65.4,45.7,30.08,SSE,157,6.0,6.0,49,0.00,,,0.00,WeatherCatV1.02B3,2013-04-08 16:42:00,
2013-04-08 12:47:00,64.0,43.9,30.08,SSE,156,5.0,9.0,48,0.00,,,0.00,WeatherCatV1.02B3,2013-04-08 16:47:00,
2013-04-08 12:52:00,63.0,44.6,30.09,SSE,156,5.0,6.0,51,0.00,,,0.00,WeatherCatV1.02B3,2013-04-08 16:52:00,
2013-04-08 12:57:00,62.5,44.6,30.08,SSE,156,4.0,4.0,52,0.00,,,0.00,WeatherCatV1.02B3,2013-04-08 16:57:00,
2013-04-08 13:02:00,62.0,44.7,30.08,SSE,156,5.0,5.0,53,0.00,,,0.00,WeatherCatV1.02B3,2013-04-08 17:02:00,
2013-04-08 13:07:00,62.1,44.3,30.08,SSE,156,6.0,7.0,52,0.00,,,0.00,WeatherCatV1.02B3,2013-04-08 17:07:00,
2013-04-08 13:12:00,62.2,43.8,30.09,SSE,155,4.0,8.0,51,0.00,,,0.00,WeatherCatV1.02B3,2013-04-08 17:12:00,
2013-04-08 13:17:00,61.7,43.4,30.09,SSE,156,5.0,10.0,51,0.00,,,0.00,WeatherCatV1.02B3,2013-04-08 17:17:00,
2013-04-08 13:22:00,61.5,43.7,30.09,SSE,156,4.0,10.0,52,0.00,,,0.00,WeatherCatV1.02B3,2013-04-08 17:22:00,
2013-04-08 13:27:00,61.2,45.4,30.09,SSE,156,6.0,6.0,56,0.00,,,0.00,WeatherCatV1.02B3,2013-04-08 17:27:00,
2013-04-08 13:32:00,60.9,44.1,30.09,SSE,156,3.0,6.0,54,0.00,,,0.00,WeatherCatV1.02B3,2013-04-08 17:32:00,
2013-04-08 13:37:00,61.3,44.0,30.08,SSE,156,4.0,7.0,53,0.00,,,0.00,WeatherCatV1.02B3,2013-04-08 17:37:00,
2013-04-08 13:42:00,61.2,44.4,30.09,SSE,156,6.0,6.0,54,0.00,,,0.00,WeatherCatV1.02B3,2013-04-08 17:42:00,
2013-04-08 13:47:00,61.0,43.7,30.09,SSE,156,1.0,8.0,53,0.00,,,0.00,WeatherCatV1.02B3,2013-04-08 17:47:00,
2013-04-08 13:52:00,61.5,44.7,30.09,SSE,156,5.0,7.0,54,0.00,,,0.00,WeatherCatV1.02B3,2013-04-08 17:52:00,
2013-04-08 13:57:00,61.5,44.7,30.09,SSE,156,6.0,6.0,54,0.00,,,0.00,WeatherCatV1.02B3,2013-04-08 17:57:00,
2013-04-08 14:02:00,61.5,43.7,30.08,SSE,156,5.0,6.0,52,0.00,,,0.00,WeatherCatV1.02B3,2013-04-08 18:02:00,
2013-04-08 14:07:00,61.2,43.4,30.08,SSE,156,4.0,8.0,52,0.00,,,0.00,WeatherCatV1.02B3,2013-04-08 18:07:00,
2013-04-08 14:12:00,61.2,43.4,30.08,SSE,156,4.0,5.0,52,0.00,,,0.00,WeatherCatV1.02B3,2013-04-08 18:12:00,
2013-04-08 14:17:00,60.9,43.2,30.08,SSE,156,8.0,10.0,52,0.00,,,0.00,WeatherCatV1.02B3,2013-04-08 18:17:00,
2013-04-08 14:22:00,61.1,43.8,30.08,SSE,156,2.0,7.0,53,0.00,,,0.00,WeatherCatV1.02B3,2013-04-08 18:22:00,
2013-04-08 14:27:00,61.2,44.4,30.08,SSE,156,2.0,7.0,54,0.00,,,0.00,WeatherCatV1.02B3,2013-04-08 18:27:00,
2013-04-08 14:32:00,61.4,43.6,30.08,SSE,156,3.0,8.0,52,0.00,,,0.00,WeatherCatV1.02B3,2013-04-08 18:32:00,
2013-04-08 14:37:00,61.4,43.1,30.08,SSE,156,1.0,7.0,51,0.00,,,0.00,WeatherCatV1.02B3,2013-04-08 18:37:00,
2013-04-08 14:42:00,61.5,43.2,30.08,SSE,156,5.0,5.0,51,0.00,,,0.00,WeatherCatV1.02B3,2013-04-08 18:42:00,
2013-04-08 14:47:00,61.8,44.5,30.08,SSE,156,5.0,8.0,53,0.00,,,0.00,WeatherCatV1.02B3,2013-04-08 18:47:00,
2013-04-08 14:52:00,61.5,43.2,30.07,SSE,156,4.0,6.0,51,0.00,,,0.00,WeatherCatV1.02B3,2013-04-08 18:52:00,
2013-04-08 14:57:00,61.6,43.3,30.07,SSE,156,1.0,6.0,51,0.00,,,0.00,WeatherCatV1.02B3,2013-04-08 18:57:00,
2013-04-08 15:02:00,62.2,44.4,30.07,SSE,155,2.0,4.0,52,0.00,,,0.00,WeatherCatV1.02B3,2013-04-08 19:02:00,
2013-04-08 15:07:00,62.5,43.6,30.07,SSE,156,2.0,5.0,50,0.00,,,0.00,WeatherCatV1.02B3,2013-04-08 19:07:00,
2013-04-08 15:12:00,62.1,43.8,30.07,SSE,156,3.0,6.0,51,0.00,,,0.00,WeatherCatV1.02B3,2013-04-08 19:12:00,
2013-04-08 15:17:00,61.5,42.7,30.07,SSE,156,4.0,9.0,50,0.00,,,0.00,WeatherCatV1.02B3,2013-04-08 19:17:00,
2013-04-08 15:22:00,61.4,42.6,30.07,SSE,156,2.0,4.0,50,0.00,,,0.00,WeatherCatV1.02B3,2013-04-08 19:22:00,
2013-04-08 15:27:00,61.7,43.4,30.07,SSE,156,2.0,7.0,51,0.00,,,0.00,WeatherCatV1.02B3,2013-04-08 19:27:00,
2013-04-08 15:32:00,62.0,43.1,30.08,SSE,156,4.0,7.0,50,0.00,,,0.00,WeatherCatV1.02B3,2013-04-08 19:32:00,
2013-04-08 15:37:00,62.8,44.4,30.07,SSE,156,0.0,4.0,51,0.00,,,0.00,WeatherCatV1.02B3,2013-04-08 19:37:00,
2013-04-08 15:42:00,62.6,42.6,30.07,SSE,156,7.0,9.0,48,0.00,,,0.00,WeatherCatV1.02B3,2013-04-08 19:42:00,
2013-04-08 15:47:00,62.8,43.4,30.06,SSE,157,3.0,4.0,49,0.00,,,0.00,WeatherCatV1.02B3,2013-04-08 19:47:00,
2013-04-08 15:52:00,63.0,42.4,30.06,SSE,156,3.0,5.0,47,0.00,,,0.00,WeatherCatV1.02B3,2013-04-08 19:52:00,
2013-04-08 15:57:00,62.8,42.3,30.06,SSE,156,1.0,5.0,47,0.00,,,0.00,WeatherCatV1.02B3,2013-04-08 19:57:00,
2013-04-08 16:02:00,62.9,42.9,30.06,SSE,156,2.0,4.0,48,0.00,,,0.00,WeatherCatV1.02B3,2013-04-08 20:02:00,
2013-04-08 16:07:00,63.1,42.5,30.06,SSE,156,2.0,10.0,47,0.00,,,0.00,WeatherCatV1.02B3,2013-04-08 20:07:00,
2013-04-08 16:12:00,63.4,43.4,30.06,SSE,156,2.0,5.0,48,0.00,,,0.00,WeatherCatV1.02B3,2013-04-08 20:12:00,
2013-04-08 16:17:00,63.3,42.7,30.05,SSE,156,5.0,8.0,47,0.00,,,0.00,WeatherCatV1.02B3,2013-04-08 20:17:00,
2013-04-08 16:22:00,63.1,43.1,30.06,SSE,156,2.0,5.0,48,0.00,,,0.00,WeatherCatV1.02B3,2013-04-08 20:22:00,
2013-04-08 16:27:00,63.5,43.5,30.06,SSE,157,6.0,6.0,48,0.00,,,0.00,WeatherCatV1.02B3,2013-04-08 20:27:00,
2013-04-08 16:32:00,63.5,42.3,30.06,SSE,156,4.0,6.0,46,0.00,,,0.00,WeatherCatV1.02B3,2013-04-08 20:32:00,
2013-04-08 16:37:00,63.2,42.6,30.06,SSE,157,1.0,7.0,47,0.00,,,0.00,WeatherCatV1.02B3,2013-04-08 20:37:00,
2013-04-08 16:42:00,63.0,42.4,30.06,SSE,156,5.0,6.0,47,0.00,,,0.00,WeatherCatV1.02B3,2013-04-08 20:42:00,
2013-04-08 16:47:00,63.0,41.9,30.06,SSE,156,6.0,6.0,46,0.00,,,0.00,WeatherCatV1.02B3,2013-04-08 20:47:00,
2013-04-08 16:52:00,63.0,41.9,30.06,SSE,156,3.0,6.0,46,0.00,,,0.00,WeatherCatV1.02B3,2013-04-08 20:52:00,
2013-04-08 16:57:00,63.0,42.4,30.06,SSE,157,3.0,5.0,47,0.00,,,0.00,WeatherCatV1.02B3,2013-04-08 20:57:00,
2013-04-08 17:02:00,63.0,42.4,30.06,SSE,157,6.0,6.0,47,0.00,,,0.00,WeatherCatV1.02B3,2013-04-08 21:02:00,
2013-04-08 17:07:00,62.8,41.7,30.06,SSE,157,6.0,7.0,46,0.00,,,0.00,WeatherCatV1.02B3,2013-04-08 21:07:00,
2013-04-08 17:12:00,62.8,42.3,30.06,SSE,157,2.0,7.0,47,0.00,,,0.00,WeatherCatV1.02B3,2013-04-08 21:12:00,
2013-04-08 17:17:00,62.8,41.7,30.06,SSE,157,0.0,2.0,46,0.00,,,0.00,WeatherCatV1.02B3,2013-04-08 21:17:00,
2013-04-08 17:22:00,63.1,42.0,30.06,SSE,157,3.0,5.0,46,0.00,,,0.00,WeatherCatV1.02B3,2013-04-08 21:22:00,
2013-04-08 17:27:00,63.3,41.6,30.06,SSE,156,1.0,4.0,45,0.00,,,0.00,WeatherCatV1.02B3,2013-04-08 21:27:00,
2013-04-08 17:32:00,63.1,42.0,30.06,SSE,156,0.0,1.0,46,0.00,,,0.00,WeatherCatV1.02B3,2013-04-08 21:32:00,
2013-04-08 17:37:00,63.1,41.4,30.06,SSE,156,1.0,2.0,45,0.00,,,0.00,WeatherCatV1.02B3,2013-04-08 21:37:00,
2013-04-08 17:42:00,63.2,41.5,30.06,SSE,157,1.0,1.0,45,0.00,,,0.00,WeatherCatV1.02B3,2013-04-08 21:42:00,
2013-04-08 17:47:00,63.3,41.6,30.06,SSE,157,3.0,4.0,45,0.00,,,0.00,WeatherCatV1.02B3,2013-04-08 21:47:00,
2013-04-08 17:52:00,63.3,41.6,30.06,SSE,157,2.0,6.0,45,0.00,,,0.00,WeatherCatV1.02B3,2013-04-08 21:52:00,
2013-04-08 17:57:00,63.3,41.0,30.06,SSE,156,2.0,4.0,44,0.00,,,0.00,WeatherCatV1.02B3,2013-04-08 21:57:00,
2013-04-08 18:02:00,63.4,41.7,30.07,SSE,156,2.0,3.0,45,0.00,,,0.00,WeatherCatV1.02B3,2013-04-08 22:02:00,
2013-04-08 18:07:00,63.4,41.1,30.07,SSE,157,3.0,4.0,44,0.00,,,0.00,WeatherCatV1.02B3,2013-04-08 22:07:00,
2013-04-08 18:12:00,63.1,41.4,30.07,SSE,156,4.0,6.0,45,0.00,,,0.00,WeatherCatV1.02B3,2013-04-08 22:12:00,
2013-04-08 18:17:00,62.2,41.7,30.07,SSE,156,2.0,5.0,47,0.00,,,0.00,WeatherCatV1.02B3,2013-04-08 22:17:00,
2013-04-08 18:22:00,61.3,42.0,30.07,SSE,156,0.0,2.0,49,0.00,,,0.00,WeatherCatV1.02B3,2013-04-08 22:22:00,
2013-04-08 18:27:00,60.5,41.8,30.07,SSE,156,4.0,5.0,50,0.00,,,0.00,WeatherCatV1.02B3,2013-04-08 22:27:00,
2013-04-08 18:32:00,59.9,41.7,30.07,SSE,156,0.0,2.0,51,0.00,,,0.00,WeatherCatV1.02B3,2013-04-08 22:32:00,
2013-04-08 18:37:00,59.2,42.1,30.07,SSE,156,0.0,3.0,53,0.00,,,0.00,WeatherCatV1.02B3,2013-04-08 22:37:00,
2013-04-08 18:42:00,58.6,43.0,30.08,SSE,156,2.0,4.0,56,0.00,,,0.00,WeatherCatV1.02B3,2013-04-08 22:42:00,
2013-04-08 18:47:00,58.1,43.4,30.08,SSE,156,1.0,3.0,58,0.00,,,0.00,WeatherCatV1.02B3,2013-04-08 22:47:00,
2013-04-08 18:52:00,57.6,43.4,30.08,SSE,156,0.0,3.0,59,0.00,,,0.00,WeatherCatV1.02B3,2013-04-08 22:52:00,
2013-04-08 18:57:00,57.1,43.8,30.08,SSE,156,2.0,2.0,61,0.00,,,0.00,WeatherCatV1.02B3,2013-04-08 22:57:00,
2013-04-08 19:02:00,56.6,44.2,30.08,SSE,156,0.0,2.0,63,0.00,,,0.00,WeatherCatV1.02B3,2013-04-08 23:02:00,
2013-04-08 19:07:00,56.3,44.3,30.08,SSE,157,1.0,1.0,64,0.00,,,0.00,WeatherCatV1.02B3,2013-04-08 23:07:00,
2013-04-08 19:12:00,55.9,44.3,30.08,SSE,156,1.0,1.0,65,0.00,,,0.00,WeatherCatV1.02B3,2013-04-08 23:12:00,
2013-04-08 19:17:00,55.6,44.0,30.08,SSE,156,2.0,2.0,65,0.00,,,0.00,WeatherCatV1.02B3,2013-04-08 23:17:00,
2013-04-08 19:22:00,55.3,44.1,30.08,SSE,156,0.0,0.0,66,0.00,,,0.00,WeatherCatV1.02B3,2013-04-08 23:22:00,
2013-04-08 19:27:00,54.9,44.1,30.08,SSE,157,0.0,0.0,67,0.00,,,0.00,WeatherCatV1.02B3,2013-04-08 23:27:00,
2013-04-08 19:32:00,54.6,43.9,30.08,SSE,156,0.0,0.0,67,0.00,,,0.00,WeatherCatV1.02B3,2013-04-08 23:32:00,
2013-04-08 19:37:00,54.4,44.1,30.08,SSE,156,0.0,2.0,68,0.00,,,0.00,WeatherCatV1.02B3,2013-04-08 23:37:00,
2013-04-08 19:42:00,54.2,43.9,30.08,SSE,156,0.0,0.0,68,0.00,,,0.00,WeatherCatV1.02B3,2013-04-08 23:42:00,
2013-04-08 19:47:00,53.9,44.0,30.08,SSE,156,0.0,1.0,69,0.00,,,0.00,WeatherCatV1.02B3,2013-04-08 23:47:00,
2013-04-08 19:52:00,53.8,43.9,30.09,SSE,157,0.0,0.0,69,0.00,,,0.00,WeatherCatV1.02B3,2013-04-08 23:52:00,
2013-04-08 19:57:00,53.5,43.6,30.08,SSE,156,0.0,0.0,69,0.00,,,0.00,WeatherCatV1.02B3,2013-04-08 23:57:00,
2013-04-08 20:02:00,53.3,43.8,30.08,SSE,157,0.0,0.0,70,0.00,,,0.00,WeatherCatV1.02B3,2013-04-09 00:02:00,
2013-04-08 20:07:00,53.0,43.9,30.09,SSE,157,0.0,0.0,71,0.00,,,0.00,WeatherCatV1.02B3,2013-04-09 00:07:00,
2013-04-08 20:12:00,52.8,43.7,30.09,SSE,156,0.0,0.0,71,0.00,,,0.00,WeatherCatV1.02B3,2013-04-09 00:12:00,
2013-04-08 20:17:00,52.5,43.4,30.09,SSE,156,0.0,0.0,71,0.00,,,0.00,WeatherCatV1.02B3,2013-04-09 00:17:00,
2013-04-08 20:22:00,52.3,43.5,30.09,SSE,157,0.0,0.0,72,0.00,,,0.00,WeatherCatV1.02B3,2013-04-09 00:22:00,
2013-04-08 20:27:00,52.1,43.7,30.09,SSE,156,0.0,0.0,73,0.00,,,0.00,WeatherCatV1.02B3,2013-04-09 00:27:00,
2013-04-08 20:32:00,52.0,43.6,30.09,SSE,157,0.0,0.0,73,0.00,,,0.00,WeatherCatV1.02B3,2013-04-09 00:32:00,
2013-04-08 20:37:00,51.7,43.3,30.10,SSE,157,0.0,0.0,73,0.00,,,0.00,WeatherCatV1.02B3,2013-04-09 00:37:00,
2013-04-08 20:42:00,51.5,43.5,30.10,SSE,156,0.0,0.0,74,0.00,,,0.00,WeatherCatV1.02B3,2013-04-09 00:42:00,
2013-04-08 20:47:00,51.5,43.8,30.10,SSE,157,0.0,0.0,75,0.00,,,0.00,WeatherCatV1.02B3,2013-04-09 00:47:00,
2013-04-08 20:52:00,51.5,43.8,30.10,SSE,156,0.0,0.0,75,0.00,,,0.00,WeatherCatV1.02B3,2013-04-09 00:52:00,
2013-04-08 20:57:00,51.5,43.8,30.10,SSE,157,0.0,0.0,75,0.00,,,0.00,WeatherCatV1.02B3,2013-04-09 00:57:00,
2013-04-08 21:02:00,51.6,43.6,30.10,SSE,156,0.0,0.0,74,0.00,,,0.00,WeatherCatV1.02B3,2013-04-09 01:02:00,
2013-04-08 21:07:00,51.5,43.5,30.10,SSE,156,0.0,0.0,74,0.00,,,0.00,WeatherCatV1.02B3,2013-04-09 01:07:00,
2013-04-08 21:12:00,51.1,43.5,30.10,SSE,156,0.0,0.0,75,0.00,,,0.00,WeatherCatV1.02B3,2013-04-09 01:12:00,
2013-04-08 21:17:00,50.9,43.3,30.10,SSE,157,0.0,0.0,75,0.00,,,0.00,WeatherCatV1.02B3,2013-04-09 01:17:00,
2013-04-08 21:22:00,50.8,43.5,30.10,SSE,157,0.0,0.0,76,0.00,,,0.00,WeatherCatV1.02B3,2013-04-09 01:22:00,
2013-04-08 21:27:00,50.8,43.5,30.10,SSE,156,0.0,0.0,76,0.00,,,0.00,WeatherCatV1.02B3,2013-04-09 01:27:00,
2013-04-08 21:32:00,50.8,43.5,30.11,SSE,156,0.0,0.0,76,0.00,,,0.00,WeatherCatV1.02B3,2013-04-09 01:32:00,
2013-04-08 21:37:00,50.8,43.5,30.10,SSE,156,0.0,0.0,76,0.00,,,0.00,WeatherCatV1.02B3,2013-04-09 01:37:00,
2013-04-08 21:42:00,50.8,43.5,30.10,SSE,157,0.0,0.0,76,0.00,,,0.00,WeatherCatV1.02B3,2013-04-09 01:42:00,
2013-04-08 21:47:00,50.6,43.3,30.10,SSE,157,0.0,0.0,76,0.00,,,0.00,WeatherCatV1.02B3,2013-04-09 01:47:00,
2013-04-08 21:52:00,50.6,43.7,30.10,SSE,157,0.0,0.0,77,0.00,,,0.00,WeatherCatV1.02B3,2013-04-09 01:52:00,
2013-04-08 21:57:00,50.6,43.7,30.10,SSE,157,0.0,2.0,77,0.00,,,0.00,WeatherCatV1.02B3,2013-04-09 01:57:00,
2013-04-08 22:02:00,50.8,43.9,30.10,SSE,156,0.0,0.0,77,0.00,,,0.00,WeatherCatV1.02B3,2013-04-09 02:02:00,
2013-04-08 22:07:00,50.8,43.9,30.10,SSE,156,0.0,1.0,77,0.00,,,0.00,WeatherCatV1.02B3,2013-04-09 02:07:00,
2013-04-08 22:12:00,50.8,43.9,30.10,SSE,157,0.0,0.0,77,0.00,,,0.00,WeatherCatV1.02B3,2013-04-09 02:12:00,
2013-04-08 22:17:00,50.8,43.9,30.10,SSE,156,0.0,0.0,77,0.00,,,0.00,WeatherCatV1.02B3,2013-04-09 02:17:00,
2013-04-08 22:22:00,50.8,43.9,30.10,SSE,156,0.0,0.0,77,0.00,,,0.00,WeatherCatV1.02B3,2013-04-09 02:22:00,
2013-04-08 22:27:00,50.9,43.9,30.10,SSE,156,0.0,0.0,77,0.00,,,0.00,WeatherCatV1.02B3,2013-04-09 02:27:00,
2013-04-08 22:32:00,50.8,43.9,30.09,SSE,157,0.0,0.0,77,0.00,,,0.00,WeatherCatV1.02B3,2013-04-09 02:32:00,
2013-04-08 22:37:00,50.8,44.2,30.10,SSE,156,2.0,2.0,78,0.00,,,0.00,WeatherCatV1.02B3,2013-04-09 02:37:00,
2013-04-08 22:42:00,51.3,44.0,30.09,SSE,157,1.0,3.0,76,0.00,,,0.00,WeatherCatV1.02B3,2013-04-09 02:42:00,
2013-04-08 22:47:00,51.6,43.9,30.09,SSE,157,0.0,4.0,75,0.00,,,0.00,WeatherCatV1.02B3,2013-04-09 02:47:00,
2013-04-08 22:52:00,51.7,44.0,30.09,SSE,156,2.0,2.0,75,0.00,,,0.00,WeatherCatV1.02B3,2013-04-09 02:52:00,
2013-04-08 22:57:00,51.6,43.9,30.08,SSE,157,2.0,2.0,75,0.00,,,0.00,WeatherCatV1.02B3,2013-04-09 02:57:00,
2013-04-08 23:02:00,51.5,44.2,30.08,SSE,157,1.0,2.0,76,0.00,,,0.00,WeatherCatV1.02B3,2013-04-09 03:02:00,
2013-04-08 23:07:00,51.4,44.1,30.09,SSE,157,1.0,1.0,76,0.00,,,0.00,WeatherCatV1.02B3,2013-04-09 03:07:00,
2013-04-08 23:12:00,51.3,44.0,30.09,SSE,157,0.0,0.0,76,0.00,,,0.00,WeatherCatV1.02B3,2013-04-09 03:12:00,
2013-04-08 23:17:00,51.2,43.9,30.09,SSE,156,1.0,1.0,76,0.00,,,0.00,WeatherCatV1.02B3,2013-04-09 03:17:00,
2013-04-08 23:22:00,51.1,43.8,30.09,SSE,156,1.0,2.0,76,0.00,,,0.00,WeatherCatV1.02B3,2013-04-09 03:22:00,
2013-04-08 23:27:00,51.0,43.7,30.09,SSE,155,1.0,2.0,76,0.00,,,0.00,WeatherCatV1.02B3,2013-04-09 03:27:00,
2013-04-08 23:32:00,50.8,43.9,30.09,SSE,157,0.0,0.0,77,0.00,,,0.00,WeatherCatV1.02B3,2013-04-09 03:32:00,
2013-04-08 23:37:00,50.7,43.8,30.09,SSE,156,0.0,1.0,77,0.00,,,0.00,WeatherCatV1.02B3,2013-04-09 03:37:00,
2013-04-08 23:42:00,50.6,43.7,30.09,SSE,157,0.0,1.0,77,0.00,,,0.00,WeatherCatV1.02B3,2013-04-09 03:42:00,
2013-04-08 23:47:00,50.5,43.6,30.09,SSE,156,0.0,0.0,77,0.00,,,0.00,WeatherCatV1.02B3,2013-04-09 03:47:00,
2013-04-08 23:52:00,50.5,43.6,30.09,SSE,156,0.0,0.0,77,0.00,,,0.00,WeatherCatV1.02B3,2013-04-09 03:52:00,
2013-04-08 23:57:00,50.5,43.6,30.09,SSE,157,0.0,0.0,77,0.00,,,0.00,WeatherCatV1.02B3,2013-04-09 03:57:00,